createdAt,value
2023-04-13T00:00:54.777Z,11.61
2023-04-13T00:03:24.314Z,11.83
2023-04-13T00:05:53.789Z,10.98
2023-04-13T00:08:23.446Z,10.00
2023-04-13T00:10:51.758Z,9.29
2023-04-13T00:13:19.659Z,8.75
2023-04-13T00:15:47.734Z,8.31
2023-04-13T00:18:15.531Z,7.94
2023-04-13T00:20:43.765Z,7.65
2023-04-13T00:23:12.492Z,7.37
2023-04-13T00:25:40.509Z,7.12
2023-04-13T00:28:09.141Z,7.15
2023-04-13T00:30:37.567Z,8.49
2023-04-13T00:33:06.421Z,9.75
2023-04-13T00:35:34.901Z,10.54
2023-04-13T00:38:03.424Z,11.06
2023-04-13T00:40:31.681Z,11.18
2023-04-13T00:43:02.413Z,10.36
2023-04-13T00:45:33.822Z,9.44
2023-04-13T00:48:01.719Z,8.75
2023-04-13T00:50:29.689Z,8.22
2023-04-13T00:52:58.481Z,7.82
2023-04-13T00:55:27.921Z,7.47
2023-04-13T00:57:58.115Z,7.16
2023-04-13T01:00:27.370Z,6.90
2023-04-13T01:02:56.182Z,6.65
2023-04-13T01:05:27.125Z,6.67
2023-04-13T01:08:09.385Z,7.82
2023-04-13T01:10:50.531Z,9.08
2023-04-13T01:13:44.487Z,9.85
2023-04-13T01:16:19.663Z,10.34
2023-04-13T01:18:52.524Z,10.42
2023-04-13T01:21:26.116Z,9.67
2023-04-13T01:24:21.937Z,8.82
2023-04-13T01:26:58.451Z,8.11
2023-04-13T01:29:27.809Z,7.65
2023-04-13T01:31:57.268Z,7.29
2023-04-13T01:34:25.614Z,6.98
2023-04-13T01:36:54.459Z,6.71
2023-04-13T01:39:25.638Z,6.46
2023-04-13T01:42:02.420Z,6.47
2023-04-13T01:44:35.069Z,7.52
2023-04-13T01:47:16.313Z,8.55
2023-04-13T01:50:33.919Z,9.13
2023-04-13T01:53:17.807Z,9.52
2023-04-13T01:55:48.743Z,9.91
2023-04-13T01:58:19.518Z,10.13
2023-04-13T02:00:58.148Z,9.43
2023-04-13T02:03:27.398Z,8.63
2023-04-13T02:05:56.766Z,8.04
2023-04-13T02:08:25.100Z,7.58
2023-04-13T02:10:52.906Z,7.21
2023-04-13T02:13:20.827Z,6.89
2023-04-13T02:15:48.903Z,6.60
2023-04-13T02:18:17.636Z,6.57
2023-04-13T02:20:46.581Z,7.87
2023-04-13T02:23:18.127Z,9.17
2023-04-13T02:25:47.869Z,10.01
2023-04-13T02:28:18.273Z,10.57
2023-04-13T02:30:47.392Z,10.78
2023-04-13T02:33:15.393Z,9.91
2023-04-13T02:35:43.758Z,8.93
2023-04-13T02:38:12.293Z,8.18
2023-04-13T02:40:44.015Z,7.64
2023-04-13T02:43:12.624Z,7.20
2023-04-13T02:45:41.536Z,6.84
2023-04-13T02:48:10.799Z,6.54
2023-04-13T02:50:39.307Z,6.25
2023-04-13T02:53:09.476Z,6.21
2023-04-13T02:55:39.183Z,7.40
2023-04-13T02:58:12.463Z,8.68
2023-04-13T03:00:42.615Z,9.56
2023-04-13T03:03:12.162Z,10.12
2023-04-13T03:05:46.227Z,10.29
2023-04-13T03:08:17.700Z,9.43
2023-04-13T03:11:14.820Z,8.31
2023-04-13T03:13:48.536Z,7.63
2023-04-13T03:16:17.897Z,7.12
2023-04-13T03:18:46.623Z,6.71
2023-04-13T03:21:14.997Z,6.38
2023-04-13T03:23:59.288Z,6.05
2023-04-13T03:26:27.781Z,5.78
2023-04-13T03:28:57.353Z,5.75
2023-04-13T03:31:26.674Z,6.92
2023-04-13T03:33:55.170Z,8.26
2023-04-13T03:36:23.212Z,9.26
2023-04-13T03:38:51.146Z,9.92
2023-04-13T03:41:19.364Z,10.12
2023-04-13T03:43:47.538Z,9.26
2023-04-13T03:46:16.217Z,8.27
2023-04-13T03:48:44.459Z,7.54
2023-04-13T03:51:16.485Z,7.00
2023-04-13T03:53:52.215Z,6.58
2023-04-13T03:56:23.711Z,6.22
2023-04-13T03:58:51.792Z,5.94
2023-04-13T04:01:23.619Z,5.69
2023-04-13T04:03:56.137Z,5.46
2023-04-13T04:06:27.278Z,5.53
2023-04-13T04:09:06.863Z,6.93
2023-04-13T04:11:42.406Z,8.23
2023-04-13T04:14:10.916Z,9.14
2023-04-13T04:16:39.561Z,9.86
2023-04-13T04:19:15.417Z,10.20
2023-04-13T04:21:45.010Z,9.46
2023-04-13T04:24:23.723Z,8.63
2023-04-13T04:26:59.601Z,7.99
2023-04-13T04:29:36.591Z,7.58
2023-04-13T04:32:13.221Z,7.24
2023-04-13T04:34:41.300Z,7.03
2023-04-13T04:37:20.114Z,6.86
2023-04-13T04:39:50.854Z,7.05
2023-04-13T04:42:19.060Z,8.39
2023-04-13T04:44:50.237Z,9.57
2023-04-13T04:47:20.063Z,10.31
2023-04-13T04:50:13.104Z,10.86
2023-04-13T04:52:42.474Z,11.14
2023-04-13T04:55:10.768Z,10.59
2023-04-13T04:57:40.491Z,9.90
2023-04-13T05:00:10.883Z,9.42
2023-04-13T05:02:40.081Z,9.08
2023-04-13T05:05:11.995Z,8.82
2023-04-13T05:07:40.072Z,8.61
2023-04-13T05:10:10.027Z,8.63
2023-04-13T05:12:40.858Z,9.66
2023-04-13T05:15:09.824Z,10.78
2023-04-13T05:17:37.961Z,11.56
2023-04-13T05:20:07.381Z,12.00
2023-04-13T05:22:46.386Z,11.30
2023-04-13T05:25:14.738Z,10.50
2023-04-13T05:27:43.982Z,9.93
2023-04-13T05:30:12.928Z,9.53
2023-04-13T05:32:43.888Z,9.22
2023-04-13T05:35:12.124Z,9.20
2023-04-13T05:37:40.446Z,10.37
2023-04-13T05:40:14.704Z,11.62
2023-04-13T05:42:43.852Z,12.39
2023-04-13T05:45:17.239Z,12.62
2023-04-13T05:48:06.487Z,11.71
2023-04-13T05:50:35.070Z,10.90
2023-04-13T05:53:05.829Z,10.32
2023-04-13T05:55:45.605Z,9.86
2023-04-13T05:58:15.773Z,9.52
2023-04-13T06:00:43.757Z,9.26
2023-04-13T06:03:13.296Z,9.26
2023-04-13T06:05:41.682Z,10.27
2023-04-13T06:08:10.740Z,11.46
2023-04-13T06:10:39.909Z,12.23
2023-04-13T06:13:08.442Z,12.70
2023-04-13T06:15:38.915Z,13.01
2023-04-13T06:18:06.831Z,13.15
2023-04-13T06:20:35.025Z,12.49
2023-04-13T06:23:03.258Z,11.74
2023-04-13T06:25:31.772Z,11.19
2023-04-13T06:28:02.500Z,10.79
2023-04-13T06:30:31.874Z,10.77
2023-04-13T06:33:01.013Z,11.92
2023-04-13T06:35:30.623Z,12.94
2023-04-13T06:38:01.623Z,13.62
2023-04-13T06:40:34.993Z,14.09
2023-04-13T06:43:08.931Z,14.29
2023-04-13T06:45:48.729Z,13.52
2023-04-13T06:48:21.993Z,12.70
2023-04-13T06:50:52.574Z,12.12
2023-04-13T06:53:20.965Z,11.71
2023-04-13T06:55:49.120Z,11.40
2023-04-13T06:58:17.102Z,11.44
2023-04-13T07:00:45.100Z,12.46
2023-04-13T07:03:13.461Z,13.35
2023-04-13T07:05:41.710Z,13.94
2023-04-13T07:08:13.158Z,14.19
2023-04-13T07:10:42.845Z,13.62
2023-04-13T07:13:18.952Z,12.90
2023-04-13T07:15:47.226Z,12.40
2023-04-13T07:18:15.211Z,12.05
2023-04-13T07:20:43.069Z,11.80
2023-04-13T07:23:11.809Z,11.58
2023-04-13T07:25:40.226Z,11.40
2023-04-13T07:28:13.396Z,11.52
2023-04-13T07:30:45.107Z,12.69
2023-04-13T07:33:13.613Z,13.75
2023-04-13T07:35:41.609Z,14.34
2023-04-13T07:38:12.189Z,13.91
2023-04-13T07:40:40.047Z,13.26
2023-04-13T07:43:10.241Z,12.80
2023-04-13T07:45:39.779Z,12.49
2023-04-13T07:48:08.176Z,12.26
2023-04-13T07:50:43.861Z,12.08
2023-04-13T07:53:16.431Z,11.92
2023-04-13T07:55:45.141Z,11.82
2023-04-13T07:58:13.795Z,11.74
2023-04-13T08:00:42.340Z,11.68
2023-04-13T08:03:10.384Z,11.83
2023-04-13T08:05:38.736Z,13.01
2023-04-13T08:08:06.490Z,14.28
2023-04-13T08:10:35.326Z,14.86
2023-04-13T08:13:04.952Z,14.38
2023-04-13T08:15:33.315Z,13.80
2023-04-13T08:18:03.859Z,13.39
2023-04-13T08:20:34.106Z,13.12
2023-04-13T08:23:02.525Z,12.91
2023-04-13T08:25:30.567Z,12.77
2023-04-13T08:27:58.325Z,12.65
2023-04-13T08:30:26.412Z,12.56
2023-04-13T08:32:58.548Z,12.48
2023-04-13T08:35:27.828Z,12.43
2023-04-13T08:37:56.663Z,12.39
2023-04-13T08:40:25.349Z,12.35
2023-04-13T08:42:55.968Z,12.34
2023-04-13T08:45:24.302Z,12.31
2023-04-13T08:47:52.819Z,12.31
2023-04-13T08:50:22.765Z,12.31
2023-04-13T08:52:54.513Z,12.32
2023-04-13T08:55:23.050Z,12.33
2023-04-13T08:57:55.589Z,12.37
2023-04-13T09:00:25.068Z,12.39
2023-04-13T09:03:04.977Z,12.41
2023-04-13T09:05:39.546Z,12.45
2023-04-13T09:08:08.810Z,12.51
2023-04-13T09:10:40.826Z,12.59
2023-04-13T09:13:09.586Z,12.66
2023-04-13T09:15:37.895Z,12.73
2023-04-13T09:18:13.775Z,12.81
2023-04-13T09:20:58.933Z,12.89
2023-04-13T09:23:26.793Z,12.95
2023-04-13T09:26:08.063Z,12.99
2023-04-13T09:28:49.949Z,13.04
2023-04-13T09:31:17.887Z,13.10
2023-04-13T09:33:49.253Z,13.15
2023-04-13T09:36:19.664Z,13.21
2023-04-13T09:38:53.087Z,13.26
2023-04-13T09:41:40.799Z,13.31
2023-04-13T09:44:18.144Z,13.37
2023-04-13T09:46:57.718Z,13.41
2023-04-13T09:49:26.272Z,13.45
2023-04-13T09:51:54.595Z,13.49
2023-04-13T09:54:22.976Z,13.54
2023-04-13T09:56:58.073Z,13.61
2023-04-13T09:59:27.439Z,13.70
2023-04-13T10:01:55.719Z,13.78
2023-04-13T10:04:24.730Z,13.86
2023-04-13T10:06:52.626Z,13.93
2023-04-13T10:09:21.437Z,13.97
2023-04-13T10:11:54.215Z,14.03
2023-04-13T10:14:26.713Z,14.09
2023-04-13T10:17:16.847Z,14.15
2023-04-13T10:19:51.196Z,14.19
2023-04-13T10:22:22.923Z,14.25
2023-04-13T10:24:53.115Z,14.32
2023-04-13T10:27:23.621Z,14.41
2023-04-13T10:29:51.771Z,14.50
2023-04-13T10:32:21.332Z,14.58
2023-04-13T10:34:50.116Z,14.64
2023-04-13T10:37:24.467Z,14.69
2023-04-13T10:40:06.351Z,14.72
2023-04-13T10:42:52.397Z,14.75
2023-04-13T10:45:24.738Z,14.80
2023-04-13T10:47:56.422Z,14.85
2023-04-13T10:50:27.771Z,14.89
2023-04-13T10:53:07.535Z,14.94
2023-04-13T10:55:35.854Z,15.00
2023-04-13T10:58:14.816Z,15.03
2023-04-13T11:00:46.706Z,15.07
2023-04-13T11:03:17.478Z,15.09
2023-04-13T11:05:48.503Z,15.10
2023-04-13T11:08:19.262Z,15.12
2023-04-13T11:10:55.392Z,15.15
2023-04-13T11:13:25.553Z,15.21
2023-04-13T11:16:04.249Z,15.28
2023-04-13T11:18:32.458Z,15.35
2023-04-13T11:21:03.938Z,15.42
2023-04-13T11:23:34.945Z,15.48
2023-04-13T11:26:04.876Z,15.53
2023-04-13T11:28:53.464Z,15.59
2023-04-13T11:31:21.492Z,15.66
2023-04-13T11:33:49.582Z,15.74
2023-04-13T11:36:20.176Z,15.77
2023-04-13T11:38:48.251Z,15.80
2023-04-13T11:41:17.497Z,15.82
2023-04-13T11:43:48.792Z,15.83
2023-04-13T11:46:25.260Z,15.84
2023-04-13T11:48:55.931Z,15.86
2023-04-13T11:51:24.600Z,15.90
2023-04-13T11:53:53.241Z,15.92
2023-04-13T11:56:21.883Z,15.93
2023-04-13T11:58:51.886Z,15.95
2023-04-13T12:01:26.906Z,15.95
2023-04-13T12:04:12.632Z,15.95
2023-04-13T12:06:47.408Z,15.96
2023-04-13T12:09:18.081Z,15.98
2023-04-13T12:12:07.742Z,15.99
2023-04-13T12:17:37.578Z,16.03
2023-04-13T12:20:04.900Z,16.07
2023-04-13T12:22:52.439Z,16.10
2023-04-13T12:25:25.871Z,16.10
2023-04-13T12:27:54.338Z,16.11
2023-04-13T12:30:23.421Z,16.11
2023-04-13T12:32:53.686Z,16.11
2023-04-13T12:35:21.898Z,16.09
2023-04-13T12:37:52.894Z,16.10
2023-04-13T12:40:20.940Z,16.10
2023-04-13T12:42:49.332Z,16.13
2023-04-13T12:45:17.685Z,16.16
2023-04-13T12:47:45.588Z,16.18
2023-04-13T12:50:13.683Z,16.20
2023-04-13T12:52:43.278Z,16.21
2023-04-13T12:55:11.486Z,16.23
2023-04-13T12:57:40.069Z,16.26
2023-04-13T13:00:12.628Z,16.28
2023-04-13T13:02:41.058Z,16.30
2023-04-13T13:05:09.664Z,16.32
2023-04-13T13:07:38.189Z,16.34
2023-04-13T13:10:14.930Z,16.33
2023-04-13T13:12:54.368Z,16.32
2023-04-13T13:15:22.386Z,16.31
2023-04-13T13:17:50.300Z,16.31
2023-04-13T13:20:18.264Z,16.33
2023-04-13T13:22:47.425Z,16.33
2023-04-13T13:25:16.400Z,16.33
2023-04-13T13:30:15.643Z,16.34
2023-04-13T13:32:43.628Z,16.34
2023-04-13T13:35:11.772Z,16.35
2023-04-13T13:37:39.894Z,16.37
2023-04-13T13:40:13.212Z,16.38
2023-04-13T13:42:51.347Z,16.39
2023-04-13T13:45:21.467Z,16.41
2023-04-13T13:47:54.276Z,16.41
2023-04-13T13:50:28.891Z,16.43
2023-04-13T13:53:03.071Z,16.44
2023-04-13T13:55:34.516Z,16.46
2023-04-13T13:58:02.689Z,16.48
2023-04-13T14:00:31.316Z,16.49
2023-04-13T14:02:59.426Z,16.50
2023-04-13T14:05:27.456Z,16.51
2023-04-13T14:07:55.275Z,16.50
2023-04-13T14:10:23.111Z,16.49
2023-04-13T14:12:52.066Z,16.49
2023-04-13T14:15:20.345Z,16.49
2023-04-13T14:17:58.796Z,16.48
2023-04-13T14:20:35.616Z,16.49
2023-04-13T14:23:03.782Z,16.51
2023-04-13T14:25:31.717Z,16.54
2023-04-13T14:27:59.540Z,16.54
2023-04-13T14:30:28.337Z,16.52
2023-04-13T14:32:57.020Z,16.50
2023-04-13T14:35:24.961Z,16.49
2023-04-13T14:37:53.165Z,16.47
2023-04-13T14:40:23.378Z,16.46
2023-04-13T14:42:53.051Z,16.47
2023-04-13T14:45:21.331Z,16.46
2023-04-13T14:47:50.215Z,16.46
2023-04-13T14:50:18.400Z,16.46
2023-04-13T14:52:47.137Z,16.45
2023-04-13T14:55:15.711Z,16.45
2023-04-13T14:57:43.867Z,16.43
2023-04-13T15:00:22.612Z,16.42
2023-04-13T15:02:52.647Z,16.41
2023-04-13T15:05:21.266Z,16.39
2023-04-13T15:07:51.111Z,16.37
2023-04-13T15:10:20.174Z,16.34
2023-04-13T15:12:48.522Z,16.29
2023-04-13T15:15:16.577Z,16.23
2023-04-13T15:17:44.642Z,16.18
2023-04-13T15:20:12.772Z,16.14
2023-04-13T15:22:40.851Z,16.11
2023-04-13T15:25:09.527Z,16.07
2023-04-13T15:27:37.549Z,16.03
2023-04-13T15:30:07.787Z,16.00
2023-04-13T15:32:36.407Z,15.98
2023-04-13T15:35:04.543Z,15.97
2023-04-13T15:37:32.634Z,15.97
2023-04-13T15:40:01.695Z,15.96
2023-04-13T15:42:29.773Z,15.95
2023-04-13T15:44:57.977Z,15.95
2023-04-13T15:47:28.042Z,15.93
2023-04-13T15:49:55.918Z,15.92
2023-04-13T15:52:23.846Z,15.89
2023-04-13T15:54:51.598Z,15.87
2023-04-13T15:57:19.405Z,15.84
2023-04-13T15:59:47.451Z,15.80
2023-04-13T16:02:15.522Z,15.77
2023-04-13T16:04:43.864Z,15.74
2023-04-13T16:07:14.589Z,15.71
2023-04-13T16:09:44.152Z,15.68
2023-04-13T16:12:12.125Z,15.64
2023-04-13T16:14:45.396Z,15.61
2023-04-13T16:17:15.207Z,15.56
2023-04-13T16:19:47.179Z,15.51
2023-04-13T16:22:16.451Z,15.46
2023-04-13T16:24:44.328Z,15.41
2023-04-13T16:27:12.255Z,15.35
2023-04-13T16:29:41.751Z,15.29
2023-04-13T16:32:09.560Z,15.23
2023-04-13T16:34:37.444Z,15.17
2023-04-13T16:37:05.220Z,15.10
2023-04-13T16:39:32.979Z,15.04
2023-04-13T16:42:01.090Z,14.96
2023-04-13T16:44:28.863Z,14.89
2023-04-13T16:46:56.839Z,14.79
2023-04-13T16:49:24.777Z,14.69
2023-04-13T16:51:52.711Z,14.60
2023-04-13T16:54:21.227Z,14.50
2023-04-13T16:56:49.179Z,14.39
2023-04-13T16:59:17.029Z,14.29
2023-04-13T17:01:45.964Z,14.19
2023-04-13T17:04:14.207Z,14.09
2023-04-13T17:06:42.453Z,13.99
2023-04-13T17:09:10.605Z,13.90
2023-04-13T17:11:38.991Z,13.80
2023-04-13T17:14:10.062Z,13.70
2023-04-13T17:16:38.249Z,13.60
2023-04-13T17:19:32.851Z,13.50
2023-04-13T17:22:00.629Z,13.39
2023-04-13T17:24:28.746Z,13.30
2023-04-13T17:26:57.016Z,13.21
2023-04-13T17:29:24.962Z,13.11
2023-04-13T17:31:53.065Z,13.01
2023-04-13T17:34:20.947Z,12.91
2023-04-13T17:36:48.887Z,12.82
2023-04-13T17:39:16.860Z,12.72
2023-04-13T17:41:45.282Z,12.63
2023-04-13T17:44:13.111Z,12.55
2023-04-13T17:46:41.891Z,12.46
2023-04-13T17:49:09.614Z,12.37
2023-04-13T17:51:37.462Z,12.29
2023-04-13T17:54:07.945Z,12.21
2023-04-13T17:56:35.759Z,12.12
2023-04-13T17:59:03.679Z,12.04
2023-04-13T18:01:33.266Z,11.97
2023-04-13T18:04:01.489Z,11.90
2023-04-13T18:06:30.558Z,11.82
2023-04-13T18:08:58.638Z,11.74
2023-04-13T18:11:26.745Z,11.67
2023-04-13T18:13:54.605Z,11.60
2023-04-13T18:16:22.808Z,11.53
2023-04-13T18:18:51.504Z,11.46
2023-04-13T18:21:19.706Z,11.40
2023-04-13T18:23:47.723Z,11.34
2023-04-13T18:26:16.264Z,11.27
2023-04-13T18:28:44.350Z,11.20
2023-04-13T18:31:14.625Z,11.15
2023-04-13T18:33:42.693Z,11.09
2023-04-13T18:36:17.602Z,11.03
2023-04-13T18:38:46.249Z,10.96
2023-04-13T18:41:14.225Z,10.90
2023-04-13T18:43:42.568Z,10.85
2023-04-13T18:46:12.041Z,10.79
2023-04-13T18:48:39.992Z,10.73
2023-04-13T18:51:10.020Z,10.68
2023-04-13T18:53:38.926Z,10.62
2023-04-13T18:56:31.934Z,10.57
2023-04-13T18:58:59.822Z,10.51
2023-04-13T19:01:27.800Z,10.45
2023-04-13T19:03:57.021Z,10.39
2023-04-13T19:06:26.453Z,10.34
2023-04-13T19:08:54.640Z,10.29
2023-04-13T19:11:24.667Z,10.24
2023-04-13T19:13:53.011Z,10.19
2023-04-13T19:16:21.974Z,10.14
2023-04-13T19:18:50.067Z,10.09
2023-04-13T19:21:18.880Z,10.04
2023-04-13T19:23:47.008Z,9.99
2023-04-13T19:26:15.798Z,9.94
2023-04-13T19:28:44.107Z,9.89
2023-04-13T19:31:12.419Z,9.84
2023-04-13T19:33:40.682Z,9.80
2023-04-13T19:36:08.619Z,9.74
2023-04-13T19:38:36.640Z,9.70
2023-04-13T19:41:04.877Z,9.66
2023-04-13T19:43:32.941Z,9.62
2023-04-13T19:46:03.339Z,9.58
2023-04-13T19:48:31.759Z,9.54
2023-04-13T19:50:59.825Z,9.50
2023-04-13T19:53:27.691Z,9.46
2023-04-13T19:55:57.007Z,9.41
2023-04-13T19:58:24.864Z,9.38
2023-04-13T20:00:52.651Z,9.34
2023-04-13T20:03:21.457Z,9.31
2023-04-13T20:05:49.659Z,9.27
2023-04-13T20:08:17.886Z,9.24
2023-04-13T20:10:45.887Z,9.23
2023-04-13T20:13:13.842Z,9.20
2023-04-13T20:15:41.997Z,9.18
2023-04-13T20:18:10.500Z,9.17
2023-04-13T20:20:38.678Z,9.15
2023-04-13T20:23:08.108Z,9.14
2023-04-13T20:25:40.376Z,9.12
2023-04-13T20:28:10.409Z,9.11
2023-04-13T20:30:38.909Z,9.09
2023-04-13T20:33:07.395Z,9.08
2023-04-13T20:35:35.662Z,9.09
2023-04-13T20:38:05.417Z,9.80
2023-04-13T20:40:36.321Z,11.20
2023-04-13T20:43:06.411Z,12.40
2023-04-13T20:45:36.382Z,13.26
2023-04-13T20:50:36.060Z,12.97
2023-04-13T20:53:05.423Z,12.25
2023-04-13T20:55:33.411Z,11.73
2023-04-13T20:58:01.952Z,11.37
2023-04-13T21:08:06.041Z,10.52
2023-04-13T21:10:34.271Z,10.39
2023-04-13T21:13:03.790Z,10.25
2023-04-13T21:15:31.802Z,10.13
2023-04-13T21:18:00.241Z,10.18
2023-04-13T21:20:28.158Z,11.29
2023-04-13T21:22:56.195Z,12.28
2023-04-13T21:25:24.283Z,12.89
2023-04-13T21:27:52.146Z,13.36
2023-04-13T21:30:19.934Z,13.63
2023-04-13T21:32:47.882Z,13.07
2023-04-13T21:35:17.402Z,12.40
2023-04-13T21:37:45.177Z,11.88
2023-04-13T21:40:13.074Z,11.51
2023-04-13T21:42:40.892Z,11.21
2023-04-13T21:45:09.243Z,10.96
2023-04-13T21:47:37.130Z,10.76
2023-04-13T21:50:05.814Z,10.70
2023-04-13T21:52:33.806Z,11.53
2023-04-13T21:55:03.128Z,12.45
2023-04-13T21:57:30.956Z,12.98
2023-04-13T21:59:58.782Z,13.29
2023-04-13T22:02:26.939Z,13.45
2023-04-13T22:04:54.925Z,12.90
2023-04-13T22:07:35.186Z,12.26
2023-04-13T22:10:08.294Z,11.72
2023-04-13T22:12:36.504Z,11.36
2023-04-13T22:15:04.989Z,11.06
2023-04-13T22:17:32.870Z,10.82
2023-04-13T22:20:00.716Z,10.76
2023-04-13T22:22:28.485Z,11.60
2023-04-13T22:24:56.387Z,12.65
2023-04-13T22:27:24.119Z,13.40
2023-04-13T22:29:54.788Z,13.84
2023-04-13T22:32:22.624Z,13.99
2023-04-13T22:34:50.748Z,13.35
2023-04-13T22:37:18.499Z,12.59
2023-04-13T22:39:47.350Z,12.03
2023-04-13T22:42:17.139Z,11.60
2023-04-13T22:44:44.867Z,11.27
2023-04-13T22:47:12.736Z,11.15
2023-04-13T22:49:40.690Z,11.94
2023-04-13T22:52:08.691Z,12.91
2023-04-13T22:54:36.435Z,13.63
2023-04-13T22:57:05.417Z,14.16
2023-04-13T22:59:33.408Z,14.37
2023-04-13T23:02:01.694Z,13.72
2023-04-13T23:04:30.229Z,12.97
2023-04-13T23:06:58.095Z,12.43
2023-04-13T23:09:25.879Z,12.03
2023-04-13T23:11:53.697Z,11.73
2023-04-13T23:14:22.649Z,11.48
2023-04-13T23:16:51.107Z,11.46
2023-04-13T23:19:19.125Z,12.33
2023-04-13T23:21:46.944Z,13.49
2023-04-13T23:24:14.875Z,14.11
2023-04-13T23:26:42.687Z,14.50
2023-04-13T23:29:10.541Z,14.80
2023-04-13T23:31:38.356Z,14.18
2023-04-13T23:34:06.425Z,13.41
2023-04-13T23:36:34.192Z,12.84
2023-04-13T23:39:02.199Z,12.42
2023-04-13T23:41:30.325Z,12.08
2023-04-13T23:43:58.694Z,11.98
2023-04-13T23:46:26.529Z,12.98
2023-04-13T23:48:54.305Z,13.93
2023-04-13T23:51:22.438Z,14.35
2023-04-13T23:53:50.171Z,14.69
2023-04-13T23:56:18.029Z,14.75
2023-04-13T23:58:45.804Z,14.10
